sensor_id;sensor_type;location;lat;lon;timestamp;P1;durP1;ratioP1;P2;durP2;ratioP2
21148;SDS011;10732;51.472;6.466;2023-03-05T00:00:18;15.52;;;2.70;;
21148;SDS011;10732;51.472;6.466;2023-03-05T00:02:43;11.18;;;2.90;;
21148;SDS011;10732;51.472;6.466;2023-03-05T00:05:09;11.07;;;2.53;;
21148;SDS011;10732;51.472;6.466;2023-03-05T00:07:35;15.23;;;3.35;;
21148;SDS011;10732;51.472;6.466;2023-03-05T00:10:01;15.77;;;3.50;;
21148;SDS011;10732;51.472;6.466;2023-03-05T00:12:28;13.02;;;2.60;;
21148;SDS011;10732;51.472;6.466;2023-03-05T00:14:54;14.98;;;3.25;;
21148;SDS011;10732;51.472;6.466;2023-03-05T00:17:20;11.38;;;2.72;;
21148;SDS011;10732;51.472;6.466;2023-03-05T00:19:45;12.13;;;2.70;;
21148;SDS011;10732;51.472;6.466;2023-03-05T00:22:11;15.10;;;3.05;;
21148;SDS011;10732;51.472;6.466;2023-03-05T00:24:36;8.93;;;2.70;;
21148;SDS011;10732;51.472;6.466;2023-03-05T00:27:02;11.82;;;3.00;;
21148;SDS011;10732;51.472;6.466;2023-03-05T00:29:28;13.40;;;2.80;;
21148;SDS011;10732;51.472;6.466;2023-03-05T00:31:53;9.68;;;2.78;;
21148;SDS011;10732;51.472;6.466;2023-03-05T00:34:19;13.48;;;2.90;;
21148;SDS011;10732;51.472;6.466;2023-03-05T00:36:47;10.30;;;2.47;;
21148;SDS011;10732;51.472;6.466;2023-03-05T00:39:14;9.82;;;3.05;;
21148;SDS011;10732;51.472;6.466;2023-03-05T00:41:41;10.35;;;2.53;;
21148;SDS011;10732;51.472;6.466;2023-03-05T00:44:07;12.85;;;2.95;;
21148;SDS011;10732;51.472;6.466;2023-03-05T00:46:33;10.73;;;2.53;;
21148;SDS011;10732;51.472;6.466;2023-03-05T00:48:59;10.13;;;2.55;;
21148;SDS011;10732;51.472;6.466;2023-03-05T00:51:25;15.32;;;3.10;;
21148;SDS011;10732;51.472;6.466;2023-03-05T00:53:51;7.60;;;2.83;;
21148;SDS011;10732;51.472;6.466;2023-03-05T00:56:16;12.40;;;3.17;;
21148;SDS011;10732;51.472;6.466;2023-03-05T00:58:42;11.95;;;2.70;;
21148;SDS011;10732;51.472;6.466;2023-03-05T01:01:08;11.43;;;3.22;;
21148;SDS011;10732;51.472;6.466;2023-03-05T01:03:34;11.25;;;3.30;;
21148;SDS011;10732;51.472;6.466;2023-03-05T01:06:00;12.73;;;3.50;;
21148;SDS011;10732;51.472;6.466;2023-03-05T01:08:29;14.25;;;3.22;;
21148;SDS011;10732;51.472;6.466;2023-03-05T01:10:55;9.88;;;3.17;;
21148;SDS011;10732;51.472;6.466;2023-03-05T01:13:21;10.52;;;3.15;;
21148;SDS011;10732;51.472;6.466;2023-03-05T01:15:47;8.88;;;3.00;;
21148;SDS011;10732;51.472;6.466;2023-03-05T01:18:14;10.30;;;3.03;;
21148;SDS011;10732;51.472;6.466;2023-03-05T01:20:41;12.52;;;3.28;;
21148;SDS011;10732;51.472;6.466;2023-03-05T01:23:07;11.68;;;3.00;;
21148;SDS011;10732;51.472;6.466;2023-03-05T01:25:33;8.25;;;3.00;;
21148;SDS011;10732;51.472;6.466;2023-03-05T01:27:59;11.98;;;2.95;;
21148;SDS011;10732;51.472;6.466;2023-03-05T01:30:25;15.80;;;3.72;;
21148;SDS011;10732;51.472;6.466;2023-03-05T01:32:51;11.57;;;3.40;;
21148;SDS011;10732;51.472;6.466;2023-03-05T01:35:19;10.38;;;3.50;;
21148;SDS011;10732;51.472;6.466;2023-03-05T01:37:46;13.40;;;4.20;;
21148;SDS011;10732;51.472;6.466;2023-03-05T01:40:14;12.70;;;3.47;;
21148;SDS011;10732;51.472;6.466;2023-03-05T01:42:48;13.32;;;4.07;;
21148;SDS011;10732;51.472;6.466;2023-03-05T01:45:23;12.43;;;3.65;;
21148;SDS011;10732;51.472;6.466;2023-03-05T01:47:48;13.10;;;3.33;;
21148;SDS011;10732;51.472;6.466;2023-03-05T01:50:19;12.13;;;3.58;;
21148;SDS011;10732;51.472;6.466;2023-03-05T01:53:00;11.27;;;3.72;;
21148;SDS011;10732;51.472;6.466;2023-03-05T01:55:28;14.98;;;3.95;;
21148;SDS011;10732;51.472;6.466;2023-03-05T01:57:56;9.75;;;3.28;;
21148;SDS011;10732;51.472;6.466;2023-03-05T02:00:34;9.82;;;3.60;;
21148;SDS011;10732;51.472;6.466;2023-03-05T02:03:04;14.02;;;3.50;;
21148;SDS011;10732;51.472;6.466;2023-03-05T02:05:33;10.35;;;3.40;;
21148;SDS011;10732;51.472;6.466;2023-03-05T02:08:01;7.45;;;2.90;;
21148;SDS011;10732;51.472;6.466;2023-03-05T02:10:30;12.90;;;3.90;;
21148;SDS011;10732;51.472;6.466;2023-03-05T02:12:59;9.80;;;3.10;;
21148;SDS011;10732;51.472;6.466;2023-03-05T02:15:27;8.50;;;2.92;;
21148;SDS011;10732;51.472;6.466;2023-03-05T02:17:53;9.13;;;2.92;;
21148;SDS011;10732;51.472;6.466;2023-03-05T02:20:20;7.40;;;2.75;;
21148;SDS011;10732;51.472;6.466;2023-03-05T02:22:48;9.45;;;3.17;;
21148;SDS011;10732;51.472;6.466;2023-03-05T02:25:15;10.07;;;3.05;;
21148;SDS011;10732;51.472;6.466;2023-03-05T02:27:42;9.52;;;3.10;;
21148;SDS011;10732;51.472;6.466;2023-03-05T02:30:14;10.88;;;3.25;;
21148;SDS011;10732;51.472;6.466;2023-03-05T02:32:39;10.32;;;2.90;;
21148;SDS011;10732;51.472;6.466;2023-03-05T02:35:05;8.32;;;3.10;;
21148;SDS011;10732;51.472;6.466;2023-03-05T02:37:31;10.27;;;3.33;;
21148;SDS011;10732;51.472;6.466;2023-03-05T02:39:56;11.55;;;3.30;;
21148;SDS011;10732;51.472;6.466;2023-03-05T02:42:22;9.63;;;3.05;;
21148;SDS011;10732;51.472;6.466;2023-03-05T02:44:47;11.10;;;3.08;;
21148;SDS011;10732;51.472;6.466;2023-03-05T02:47:13;7.20;;;3.22;;
21148;SDS011;10732;51.472;6.466;2023-03-05T02:49:39;11.18;;;3.00;;
21148;SDS011;10732;51.472;6.466;2023-03-05T02:52:04;12.68;;;3.42;;
21148;SDS011;10732;51.472;6.466;2023-03-05T02:54:30;11.98;;;3.47;;
21148;SDS011;10732;51.472;6.466;2023-03-05T02:56:56;11.82;;;3.08;;
21148;SDS011;10732;51.472;6.466;2023-03-05T02:59:21;11.68;;;3.40;;
21148;SDS011;10732;51.472;6.466;2023-03-05T03:01:47;11.90;;;3.28;;
21148;SDS011;10732;51.472;6.466;2023-03-05T03:04:12;12.45;;;3.85;;
21148;SDS011;10732;51.472;6.466;2023-03-05T03:06:38;11.75;;;3.15;;
21148;SDS011;10732;51.472;6.466;2023-03-05T03:09:03;13.30;;;3.60;;
21148;SDS011;10732;51.472;6.466;2023-03-05T03:11:29;8.25;;;3.15;;
21148;SDS011;10732;51.472;6.466;2023-03-05T03:13:55;10.05;;;3.15;;
21148;SDS011;10732;51.472;6.466;2023-03-05T03:16:20;16.02;;;3.55;;
21148;SDS011;10732;51.472;6.466;2023-03-05T03:18:46;10.35;;;3.40;;
21148;SDS011;10732;51.472;6.466;2023-03-05T03:21:16;13.38;;;3.50;;
21148;SDS011;10732;51.472;6.466;2023-03-05T03:23:43;12.55;;;3.00;;
21148;SDS011;10732;51.472;6.466;2023-03-05T03:26:08;12.38;;;3.08;;
21148;SDS011;10732;51.472;6.466;2023-03-05T03:28:34;10.77;;;2.75;;
21148;SDS011;10732;51.472;6.466;2023-03-05T03:30:59;8.07;;;2.58;;
21148;SDS011;10732;51.472;6.466;2023-03-05T03:33:25;9.00;;;2.67;;
21148;SDS011;10732;51.472;6.466;2023-03-05T03:35:51;10.48;;;2.72;;
21148;SDS011;10732;51.472;6.466;2023-03-05T03:38:16;10.18;;;3.00;;
21148;SDS011;10732;51.472;6.466;2023-03-05T03:40:42;8.25;;;2.80;;
21148;SDS011;10732;51.472;6.466;2023-03-05T03:43:08;8.77;;;2.80;;
21148;SDS011;10732;51.472;6.466;2023-03-05T03:45:33;11.93;;;2.90;;
21148;SDS011;10732;51.472;6.466;2023-03-05T03:47:59;7.88;;;2.90;;
21148;SDS011;10732;51.472;6.466;2023-03-05T03:50:25;6.70;;;2.80;;
21148;SDS011;10732;51.472;6.466;2023-03-05T03:52:50;9.80;;;2.83;;
21148;SDS011;10732;51.472;6.466;2023-03-05T03:55:16;14.90;;;2.92;;
21148;SDS011;10732;51.472;6.466;2023-03-05T03:57:42;13.60;;;3.00;;
21148;SDS011;10732;51.472;6.466;2023-03-05T04:00:08;11.48;;;3.30;;
21148;SDS011;10732;51.472;6.466;2023-03-05T04:02:35;8.00;;;2.90;;
21148;SDS011;10732;51.472;6.466;2023-03-05T04:05:01;8.52;;;2.67;;
21148;SDS011;10732;51.472;6.466;2023-03-05T04:07:27;11.15;;;2.90;;
21148;SDS011;10732;51.472;6.466;2023-03-05T04:09:53;9.98;;;2.65;;
21148;SDS011;10732;51.472;6.466;2023-03-05T04:12:19;12.85;;;3.17;;
21148;SDS011;10732;51.472;6.466;2023-03-05T04:14:45;8.43;;;2.95;;
21148;SDS011;10732;51.472;6.466;2023-03-05T04:17:12;8.25;;;2.83;;
21148;SDS011;10732;51.472;6.466;2023-03-05T04:19:38;12.88;;;3.33;;
21148;SDS011;10732;51.472;6.466;2023-03-05T04:22:05;10.73;;;2.75;;
21148;SDS011;10732;51.472;6.466;2023-03-05T04:24:35;6.45;;;2.65;;
21148;SDS011;10732;51.472;6.466;2023-03-05T04:27:01;9.73;;;3.17;;
21148;SDS011;10732;51.472;6.466;2023-03-05T04:29:27;11.85;;;2.80;;
21148;SDS011;10732;51.472;6.466;2023-03-05T04:31:52;11.70;;;2.97;;
21148;SDS011;10732;51.472;6.466;2023-03-05T04:34:18;14.25;;;3.17;;
21148;SDS011;10732;51.472;6.466;2023-03-05T04:36:43;9.15;;;2.70;;
21148;SDS011;10732;51.472;6.466;2023-03-05T04:39:09;9.70;;;3.13;;
21148;SDS011;10732;51.472;6.466;2023-03-05T04:41:34;11.18;;;2.95;;
21148;SDS011;10732;51.472;6.466;2023-03-05T04:44:00;11.95;;;3.13;;
21148;SDS011;10732;51.472;6.466;2023-03-05T04:46:26;10.27;;;2.95;;
21148;SDS011;10732;51.472;6.466;2023-03-05T04:48:52;7.88;;;3.03;;
21148;SDS011;10732;51.472;6.466;2023-03-05T04:51:17;13.18;;;2.92;;
21148;SDS011;10732;51.472;6.466;2023-03-05T04:53:43;13.40;;;3.40;;
21148;SDS011;10732;51.472;6.466;2023-03-05T04:56:09;8.15;;;3.03;;
21148;SDS011;10732;51.472;6.466;2023-03-05T04:58:34;10.93;;;3.35;;
21148;SDS011;10732;51.472;6.466;2023-03-05T05:01:04;11.15;;;3.28;;
21148;SDS011;10732;51.472;6.466;2023-03-05T05:03:30;7.65;;;2.90;;
21148;SDS011;10732;51.472;6.466;2023-03-05T05:05:57;11.05;;;3.25;;
21148;SDS011;10732;51.472;6.466;2023-03-05T05:08:24;11.40;;;3.55;;
21148;SDS011;10732;51.472;6.466;2023-03-05T05:10:57;10.13;;;3.63;;
21148;SDS011;10732;51.472;6.466;2023-03-05T05:13:24;15.10;;;3.78;;
21148;SDS011;10732;51.472;6.466;2023-03-05T05:15:50;11.07;;;3.92;;
21148;SDS011;10732;51.472;6.466;2023-03-05T05:18:16;10.73;;;3.85;;
21148;SDS011;10732;51.472;6.466;2023-03-05T05:20:42;13.15;;;3.83;;
21148;SDS011;10732;51.472;6.466;2023-03-05T05:23:08;13.77;;;4.15;;
21148;SDS011;10732;51.472;6.466;2023-03-05T05:25:33;9.23;;;3.22;;
21148;SDS011;10732;51.472;6.466;2023-03-05T05:27:59;11.10;;;3.88;;
21148;SDS011;10732;51.472;6.466;2023-03-05T05:30:24;11.00;;;3.80;;
21148;SDS011;10732;51.472;6.466;2023-03-05T05:32:50;10.35;;;3.55;;
21148;SDS011;10732;51.472;6.466;2023-03-05T05:35:15;13.32;;;4.00;;
21148;SDS011;10732;51.472;6.466;2023-03-05T05:37:41;12.82;;;4.07;;
21148;SDS011;10732;51.472;6.466;2023-03-05T05:40:07;13.48;;;4.05;;
21148;SDS011;10732;51.472;6.466;2023-03-05T05:42:33;12.13;;;3.92;;
21148;SDS011;10732;51.472;6.466;2023-03-05T05:44:59;14.40;;;4.10;;
21148;SDS011;10732;51.472;6.466;2023-03-05T05:47:26;12.75;;;3.75;;
21148;SDS011;10732;51.472;6.466;2023-03-05T05:49:53;11.80;;;4.35;;
21148;SDS011;10732;51.472;6.466;2023-03-05T05:52:19;10.98;;;3.72;;
21148;SDS011;10732;51.472;6.466;2023-03-05T05:54:44;9.65;;;4.05;;
21148;SDS011;10732;51.472;6.466;2023-03-05T05:57:10;10.10;;;3.50;;
21148;SDS011;10732;51.472;6.466;2023-03-05T05:59:36;12.35;;;3.78;;
21148;SDS011;10732;51.472;6.466;2023-03-05T06:02:02;11.70;;;3.60;;
21148;SDS011;10732;51.472;6.466;2023-03-05T06:04:28;13.02;;;4.07;;
21148;SDS011;10732;51.472;6.466;2023-03-05T06:06:54;12.48;;;4.20;;
21148;SDS011;10732;51.472;6.466;2023-03-05T06:09:19;15.48;;;4.10;;
21148;SDS011;10732;51.472;6.466;2023-03-05T06:11:45;12.77;;;4.00;;
21148;SDS011;10732;51.472;6.466;2023-03-05T06:14:11;11.68;;;4.03;;
21148;SDS011;10732;51.472;6.466;2023-03-05T06:16:37;12.85;;;4.22;;
21148;SDS011;10732;51.472;6.466;2023-03-05T06:19:03;12.55;;;3.78;;
21148;SDS011;10732;51.472;6.466;2023-03-05T06:21:29;10.15;;;3.60;;
21148;SDS011;10732;51.472;6.466;2023-03-05T06:23:54;10.65;;;3.78;;
21148;SDS011;10732;51.472;6.466;2023-03-05T06:26:22;12.88;;;3.97;;
21148;SDS011;10732;51.472;6.466;2023-03-05T06:28:48;11.98;;;4.05;;
21148;SDS011;10732;51.472;6.466;2023-03-05T06:31:18;17.17;;;4.72;;
21148;SDS011;10732;51.472;6.466;2023-03-05T06:33:49;12.73;;;4.15;;
21148;SDS011;10732;51.472;6.466;2023-03-05T06:36:16;14.05;;;4.50;;
21148;SDS011;10732;51.472;6.466;2023-03-05T06:38:44;11.10;;;4.03;;
21148;SDS011;10732;51.472;6.466;2023-03-05T06:41:14;9.68;;;3.90;;
21148;SDS011;10732;51.472;6.466;2023-03-05T06:43:43;11.27;;;4.15;;
21148;SDS011;10732;51.472;6.466;2023-03-05T06:48:38;10.70;;;3.63;;
21148;SDS011;10732;51.472;6.466;2023-03-05T06:51:06;14.10;;;4.18;;
21148;SDS011;10732;51.472;6.466;2023-03-05T06:53:45;11.73;;;4.43;;
21148;SDS011;10732;51.472;6.466;2023-03-05T06:56:12;10.02;;;4.13;;
21148;SDS011;10732;51.472;6.466;2023-03-05T06:58:40;13.98;;;4.80;;
21148;SDS011;10732;51.472;6.466;2023-03-05T07:01:07;9.35;;;4.25;;
21148;SDS011;10732;51.472;6.466;2023-03-05T07:03:33;8.65;;;4.18;;
21148;SDS011;10732;51.472;6.466;2023-03-05T07:06:09;10.55;;;3.85;;
21148;SDS011;10732;51.472;6.466;2023-03-05T07:08:37;16.45;;;4.55;;
21148;SDS011;10732;51.472;6.466;2023-03-05T07:11:03;15.55;;;4.75;;
21148;SDS011;10732;51.472;6.466;2023-03-05T07:13:34;11.60;;;4.15;;
21148;SDS011;10732;51.472;6.466;2023-03-05T07:16:03;12.63;;;4.28;;
21148;SDS011;10732;51.472;6.466;2023-03-05T07:18:30;10.48;;;3.88;;
21148;SDS011;10732;51.472;6.466;2023-03-05T07:21:00;13.07;;;4.38;;
21148;SDS011;10732;51.472;6.466;2023-03-05T07:23:30;11.57;;;4.22;;
21148;SDS011;10732;51.472;6.466;2023-03-05T07:25:56;11.27;;;4.10;;
21148;SDS011;10732;51.472;6.466;2023-03-05T07:28:29;13.82;;;4.15;;
21148;SDS011;10732;51.472;6.466;2023-03-05T07:30:59;10.98;;;4.28;;
21148;SDS011;10732;51.472;6.466;2023-03-05T07:33:26;9.02;;;3.88;;
21148;SDS011;10732;51.472;6.466;2023-03-05T07:35:52;15.00;;;5.00;;
21148;SDS011;10732;51.472;6.466;2023-03-05T07:38:19;9.75;;;3.83;;
21148;SDS011;10732;51.472;6.466;2023-03-05T07:40:45;14.80;;;4.28;;
21148;SDS011;10732;51.472;6.466;2023-03-05T07:43:10;13.98;;;4.30;;
21148;SDS011;10732;51.472;6.466;2023-03-05T07:45:40;11.60;;;3.72;;
21148;SDS011;10732;51.472;6.466;2023-03-05T07:48:07;10.85;;;4.03;;
21148;SDS011;10732;51.472;6.466;2023-03-05T07:50:36;7.43;;;3.70;;
21148;SDS011;10732;51.472;6.466;2023-03-05T07:53:01;13.32;;;4.43;;
21148;SDS011;10732;51.472;6.466;2023-03-05T07:55:27;7.80;;;3.72;;
21148;SDS011;10732;51.472;6.466;2023-03-05T07:57:53;8.98;;;3.70;;
21148;SDS011;10732;51.472;6.466;2023-03-05T08:00:18;11.02;;;4.13;;
21148;SDS011;10732;51.472;6.466;2023-03-05T08:02:44;14.98;;;4.80;;
21148;SDS011;10732;51.472;6.466;2023-03-05T08:05:11;8.90;;;3.83;;
21148;SDS011;10732;51.472;6.466;2023-03-05T08:07:36;9.50;;;4.15;;
21148;SDS011;10732;51.472;6.466;2023-03-05T08:10:02;11.27;;;4.43;;
21148;SDS011;10732;51.472;6.466;2023-03-05T08:12:28;9.38;;;3.92;;
21148;SDS011;10732;51.472;6.466;2023-03-05T08:14:54;14.43;;;4.63;;
21148;SDS011;10732;51.472;6.466;2023-03-05T08:17:20;12.52;;;5.10;;
21148;SDS011;10732;51.472;6.466;2023-03-05T08:19:45;11.90;;;5.43;;
21148;SDS011;10732;51.472;6.466;2023-03-05T08:22:11;12.95;;;5.20;;
21148;SDS011;10732;51.472;6.466;2023-03-05T08:24:36;11.57;;;5.35;;
21148;SDS011;10732;51.472;6.466;2023-03-05T08:27:02;12.52;;;5.70;;
21148;SDS011;10732;51.472;6.466;2023-03-05T08:29:27;14.82;;;6.07;;
21148;SDS011;10732;51.472;6.466;2023-03-05T08:31:53;11.10;;;5.57;;
21148;SDS011;10732;51.472;6.466;2023-03-05T08:34:19;10.75;;;5.38;;
21148;SDS011;10732;51.472;6.466;2023-03-05T08:36:46;11.18;;;5.50;;
21148;SDS011;10732;51.472;6.466;2023-03-05T08:39:11;12.60;;;5.50;;
21148;SDS011;10732;51.472;6.466;2023-03-05T08:41:37;12.63;;;5.97;;
21148;SDS011;10732;51.472;6.466;2023-03-05T08:44:03;12.00;;;5.60;;
21148;SDS011;10732;51.472;6.466;2023-03-05T08:46:28;11.82;;;5.68;;
21148;SDS011;10732;51.472;6.466;2023-03-05T08:48:54;9.63;;;5.55;;
21148;SDS011;10732;51.472;6.466;2023-03-05T08:51:21;10.05;;;5.88;;
21148;SDS011;10732;51.472;6.466;2023-03-05T08:53:51;10.30;;;6.00;;
21148;SDS011;10732;51.472;6.466;2023-03-05T08:56:18;12.05;;;5.78;;
21148;SDS011;10732;51.472;6.466;2023-03-05T08:58:43;10.93;;;5.93;;
21148;SDS011;10732;51.472;6.466;2023-03-05T09:01:11;11.93;;;6.07;;
21148;SDS011;10732;51.472;6.466;2023-03-05T09:03:37;8.65;;;5.80;;
21148;SDS011;10732;51.472;6.466;2023-03-05T09:06:05;12.27;;;6.25;;
21148;SDS011;10732;51.472;6.466;2023-03-05T09:08:33;9.65;;;5.55;;
21148;SDS011;10732;51.472;6.466;2023-03-05T09:11:03;10.88;;;5.65;;
21148;SDS011;10732;51.472;6.466;2023-03-05T09:13:30;9.95;;;5.18;;
21148;SDS011;10732;51.472;6.466;2023-03-05T09:15:57;9.25;;;5.25;;
21148;SDS011;10732;51.472;6.466;2023-03-05T09:18:24;6.50;;;4.18;;
21148;SDS011;10732;51.472;6.466;2023-03-05T09:20:51;10.75;;;4.63;;
21148;SDS011;10732;51.472;6.466;2023-03-05T09:23:17;7.65;;;4.70;;
21148;SDS011;10732;51.472;6.466;2023-03-05T09:25:43;6.30;;;4.07;;
21148;SDS011;10732;51.472;6.466;2023-03-05T09:28:08;4.68;;;3.15;;
21148;SDS011;10732;51.472;6.466;2023-03-05T09:30:34;6.32;;;3.42;;
21148;SDS011;10732;51.472;6.466;2023-03-05T09:33:00;5.93;;;3.15;;
21148;SDS011;10732;51.472;6.466;2023-03-05T09:35:26;5.10;;;2.83;;
21148;SDS011;10732;51.472;6.466;2023-03-05T09:37:52;6.07;;;3.17;;
21148;SDS011;10732;51.472;6.466;2023-03-05T09:40:18;5.57;;;3.38;;
21148;SDS011;10732;51.472;6.466;2023-03-05T09:51:35;4.78;;;3.38;;
21148;SDS011;10732;51.472;6.466;2023-03-05T09:56:48;6.97;;;3.80;;
21148;SDS011;10732;51.472;6.466;2023-03-05T10:02:02;6.57;;;3.70;;
21148;SDS011;10732;51.472;6.466;2023-03-05T10:04:44;5.55;;;3.40;;
21148;SDS011;10732;51.472;6.466;2023-03-05T10:19:08;6.03;;;3.60;;
21148;SDS011;10732;51.472;6.466;2023-03-05T10:26:51;6.82;;;3.80;;
21148;SDS011;10732;51.472;6.466;2023-03-05T10:32:47;7.30;;;3.25;;
21148;SDS011;10732;51.472;6.466;2023-03-05T10:35:38;5.38;;;3.28;;
21148;SDS011;10732;51.472;6.466;2023-03-05T10:40:55;6.10;;;3.10;;
21148;SDS011;10732;51.472;6.466;2023-03-05T10:43:38;6.65;;;3.40;;
21148;SDS011;10732;51.472;6.466;2023-03-05T10:46:11;6.55;;;3.17;;
21148;SDS011;10732;51.472;6.466;2023-03-05T10:48:49;6.10;;;3.40;;
21148;SDS011;10732;51.472;6.466;2023-03-05T10:51:30;6.25;;;3.40;;
21148;SDS011;10732;51.472;6.466;2023-03-05T10:54:01;5.85;;;3.30;;
21148;SDS011;10732;51.472;6.466;2023-03-05T10:56:35;5.57;;;3.45;;
21148;SDS011;10732;51.472;6.466;2023-03-05T10:59:01;3.35;;;2.60;;
21148;SDS011;10732;51.472;6.466;2023-03-05T11:01:27;4.20;;;2.90;;
21148;SDS011;10732;51.472;6.466;2023-03-05T11:03:58;5.00;;;2.90;;
21148;SDS011;10732;51.472;6.466;2023-03-05T11:06:37;5.97;;;3.03;;
21148;SDS011;10732;51.472;6.466;2023-03-05T11:09:23;5.15;;;2.60;;
21148;SDS011;10732;51.472;6.466;2023-03-05T11:14:32;3.97;;;2.28;;
21148;SDS011;10732;51.472;6.466;2023-03-05T11:17:00;5.15;;;2.60;;
21148;SDS011;10732;51.472;6.466;2023-03-05T11:19:33;3.92;;;2.50;;
21148;SDS011;10732;51.472;6.466;2023-03-05T11:22:32;3.88;;;2.40;;
21148;SDS011;10732;51.472;6.466;2023-03-05T11:25:02;4.75;;;2.67;;
21148;SDS011;10732;51.472;6.466;2023-03-05T11:27:38;3.92;;;3.15;;
21148;SDS011;10732;51.472;6.466;2023-03-05T11:30:27;3.90;;;2.88;;
21148;SDS011;10732;51.472;6.466;2023-03-05T11:33:07;5.45;;;2.75;;
21148;SDS011;10732;51.472;6.466;2023-03-05T11:35:34;3.72;;;2.80;;
21148;SDS011;10732;51.472;6.466;2023-03-05T11:38:03;6.60;;;3.67;;
21148;SDS011;10732;51.472;6.466;2023-03-05T11:40:30;6.63;;;4.13;;
21148;SDS011;10732;51.472;6.466;2023-03-05T11:43:02;5.15;;;3.60;;
21148;SDS011;10732;51.472;6.466;2023-03-05T11:45:30;4.68;;;3.28;;
21148;SDS011;10732;51.472;6.466;2023-03-05T11:48:05;4.32;;;3.30;;
21148;SDS011;10732;51.472;6.466;2023-03-05T11:50:35;4.30;;;3.13;;
21148;SDS011;10732;51.472;6.466;2023-03-05T11:53:11;6.75;;;3.17;;
21148;SDS011;10732;51.472;6.466;2023-03-05T11:55:48;8.45;;;3.10;;
21148;SDS011;10732;51.472;6.466;2023-03-05T11:58:23;4.03;;;2.97;;
21148;SDS011;10732;51.472;6.466;2023-03-05T12:01:05;6.13;;;3.05;;
21148;SDS011;10732;51.472;6.466;2023-03-05T12:03:40;5.07;;;3.35;;
21148;SDS011;10732;51.472;6.466;2023-03-05T12:08:55;5.63;;;3.35;;
21148;SDS011;10732;51.472;6.466;2023-03-05T12:11:27;5.93;;;3.97;;
21148;SDS011;10732;51.472;6.466;2023-03-05T12:14:05;6.47;;;3.53;;
21148;SDS011;10732;51.472;6.466;2023-03-05T12:16:36;4.57;;;3.20;;
21148;SDS011;10732;51.472;6.466;2023-03-05T12:19:26;8.02;;;3.47;;
21148;SDS011;10732;51.472;6.466;2023-03-05T12:22:14;3.40;;;2.80;;
21148;SDS011;10732;51.472;6.466;2023-03-05T12:24:42;6.55;;;3.13;;
21148;SDS011;10732;51.472;6.466;2023-03-05T12:27:09;4.65;;;3.08;;
21148;SDS011;10732;51.472;6.466;2023-03-05T12:29:51;4.93;;;2.47;;
21148;SDS011;10732;51.472;6.466;2023-03-05T12:47:34;3.83;;;2.67;;
21148;SDS011;10732;51.472;6.466;2023-03-05T12:50:04;4.68;;;2.75;;
21148;SDS011;10732;51.472;6.466;2023-03-05T12:52:50;4.25;;;2.88;;
21148;SDS011;10732;51.472;6.466;2023-03-05T12:55:23;4.35;;;2.80;;
21148;SDS011;10732;51.472;6.466;2023-03-05T12:57:56;3.67;;;3.03;;
21148;SDS011;10732;51.472;6.466;2023-03-05T13:00:26;4.97;;;3.40;;
21148;SDS011;10732;51.472;6.466;2023-03-05T13:03:03;5.68;;;3.65;;
21148;SDS011;10732;51.472;6.466;2023-03-05T13:05:39;5.60;;;3.92;;
21148;SDS011;10732;51.472;6.466;2023-03-05T13:08:21;5.88;;;3.53;;
21148;SDS011;10732;51.472;6.466;2023-03-05T13:11:05;5.15;;;3.20;;
21148;SDS011;10732;51.472;6.466;2023-03-05T13:13:37;5.72;;;3.35;;
21148;SDS011;10732;51.472;6.466;2023-03-05T13:16:15;5.20;;;3.30;;
21148;SDS011;10732;51.472;6.466;2023-03-05T13:18:44;6.38;;;3.88;;
21148;SDS011;10732;51.472;6.466;2023-03-05T13:21:12;8.05;;;3.97;;
21148;SDS011;10732;51.472;6.466;2023-03-05T13:23:49;5.25;;;3.60;;
21148;SDS011;10732;51.472;6.466;2023-03-05T13:26:25;3.45;;;2.78;;
21148;SDS011;10732;51.472;6.466;2023-03-05T13:31:41;3.88;;;2.70;;
21148;SDS011;10732;51.472;6.466;2023-03-05T13:34:16;4.22;;;2.63;;
21148;SDS011;10732;51.472;6.466;2023-03-05T13:36:56;3.83;;;2.58;;
21148;SDS011;10732;51.472;6.466;2023-03-05T13:39:34;3.50;;;2.35;;
21148;SDS011;10732;51.472;6.466;2023-03-05T13:42:02;4.50;;;2.70;;
21148;SDS011;10732;51.472;6.466;2023-03-05T13:44:31;7.03;;;2.70;;
21148;SDS011;10732;51.472;6.466;2023-03-05T13:47:07;3.08;;;2.63;;
21148;SDS011;10732;51.472;6.466;2023-03-05T13:49:42;3.83;;;2.63;;
21148;SDS011;10732;51.472;6.466;2023-03-05T13:52:08;4.50;;;2.65;;
21148;SDS011;10732;51.472;6.466;2023-03-05T13:54:34;4.53;;;2.65;;
21148;SDS011;10732;51.472;6.466;2023-03-05T13:57:04;3.03;;;2.50;;
21148;SDS011;10732;51.472;6.466;2023-03-05T13:59:32;3.53;;;2.30;;
21148;SDS011;10732;51.472;6.466;2023-03-05T14:02:03;4.15;;;2.40;;
21148;SDS011;10732;51.472;6.466;2023-03-05T14:04:40;4.50;;;2.85;;
21148;SDS011;10732;51.472;6.466;2023-03-05T14:07:21;2.20;;;2.00;;
21148;SDS011;10732;51.472;6.466;2023-03-05T14:09:55;2.65;;;2.05;;
21148;SDS011;10732;51.472;6.466;2023-03-05T14:14:51;2.47;;;2.17;;
21148;SDS011;10732;51.472;6.466;2023-03-05T14:19:46;3.40;;;3.10;;
21148;SDS011;10732;51.472;6.466;2023-03-05T14:22:32;5.32;;;2.50;;
21148;SDS011;10732;51.472;6.466;2023-03-05T14:24:59;7.95;;;6.45;;
21148;SDS011;10732;51.472;6.466;2023-03-05T14:27:25;5.13;;;4.50;;
21148;SDS011;10732;51.472;6.466;2023-03-05T14:29:55;3.33;;;1.60;;
21148;SDS011;10732;51.472;6.466;2023-03-05T14:34:55;2.45;;;2.25;;
21148;SDS011;10732;51.472;6.466;2023-03-05T14:37:23;1.75;;;1.55;;
21148;SDS011;10732;51.472;6.466;2023-03-05T14:39:59;2.35;;;1.85;;
21148;SDS011;10732;51.472;6.466;2023-03-05T14:42:32;2.65;;;1.70;;
21148;SDS011;10732;51.472;6.466;2023-03-05T14:45:03;1.52;;;1.35;;
21148;SDS011;10732;51.472;6.466;2023-03-05T14:47:38;3.38;;;1.88;;
21148;SDS011;10732;51.472;6.466;2023-03-05T14:50:04;4.07;;;2.60;;
21148;SDS011;10732;51.472;6.466;2023-03-05T14:52:30;2.85;;;1.65;;
21148;SDS011;10732;51.472;6.466;2023-03-05T14:54:56;2.72;;;1.80;;
21148;SDS011;10732;51.472;6.466;2023-03-05T14:57:23;2.60;;;1.55;;
21148;SDS011;10732;51.472;6.466;2023-03-05T14:59:51;2.55;;;1.80;;
21148;SDS011;10732;51.472;6.466;2023-03-05T15:02:18;1.88;;;1.50;;
21148;SDS011;10732;51.472;6.466;2023-03-05T15:04:48;3.28;;;1.60;;
21148;SDS011;10732;51.472;6.466;2023-03-05T15:07:32;3.13;;;1.60;;
21148;SDS011;10732;51.472;6.466;2023-03-05T15:09:58;2.25;;;1.60;;
21148;SDS011;10732;51.472;6.466;2023-03-05T15:12:24;3.95;;;1.55;;
21148;SDS011;10732;51.472;6.466;2023-03-05T15:14:51;3.15;;;1.50;;
21148;SDS011;10732;51.472;6.466;2023-03-05T15:17:22;2.38;;;1.50;;
21148;SDS011;10732;51.472;6.466;2023-03-05T15:20:03;1.75;;;1.30;;
21148;SDS011;10732;51.472;6.466;2023-03-05T15:22:34;3.65;;;1.55;;
21148;SDS011;10732;51.472;6.466;2023-03-05T15:25:00;1.98;;;1.40;;
21148;SDS011;10732;51.472;6.466;2023-03-05T15:27:27;2.33;;;1.42;;
21148;SDS011;10732;51.472;6.466;2023-03-05T15:29:52;2.95;;;1.52;;
21148;SDS011;10732;51.472;6.466;2023-03-05T15:32:18;2.90;;;1.50;;
21148;SDS011;10732;51.472;6.466;2023-03-05T15:34:43;4.47;;;1.77;;
21148;SDS011;10732;51.472;6.466;2023-03-05T15:37:09;2.33;;;1.38;;
21148;SDS011;10732;51.472;6.466;2023-03-05T15:39:35;1.88;;;1.52;;
21148;SDS011;10732;51.472;6.466;2023-03-05T15:42:00;2.35;;;1.40;;
21148;SDS011;10732;51.472;6.466;2023-03-05T15:44:26;2.15;;;1.40;;
21148;SDS011;10732;51.472;6.466;2023-03-05T15:46:52;1.85;;;1.40;;
21148;SDS011;10732;51.472;6.466;2023-03-05T15:49:18;2.03;;;1.63;;
21148;SDS011;10732;51.472;6.466;2023-03-05T15:51:45;2.10;;;1.50;;
21148;SDS011;10732;51.472;6.466;2023-03-05T15:54:10;2.33;;;1.58;;
21148;SDS011;10732;51.472;6.466;2023-03-05T15:56:36;1.80;;;1.55;;
21148;SDS011;10732;51.472;6.466;2023-03-05T15:59:01;2.05;;;1.20;;